Archival Weather

Snohomish County (Paine Fld)

Everett, Washington (KPAE)

Report from: Sunday, November 5, 2023 7:53 AM PST
Current time: Monday, June 24, 2024 4:18 AM PDT

Current weather – Weather history – Daily summaries
Weather forecast

Present weatherLight rain
Temperature11.1°C (52.0°F)
Dew point7.8°C (46.0°F)
Winds 10 kts (5.1 m/s, 11.5 mph) South-Southeast (160°)
Visibility6 mi. (9.7 km)
Clouds Few clouds 2,900 ft. (884 m)
Ceiling: Broken clouds 6,000 ft. (1,829 m)
Overcast 8,000 ft. (2,438 m)
Altimeter29.87 in.Hg (1012 mB)
PrecipitiationTrace
Precip. events Rain began 3:53 PM
Relative humidity80 %
Density altitude-251 ft. (-76 m)
Sea-level pressure101.1 kPa (1011 mB, 29.87 in.Hg)
Remarks Automated weather observing station with precipitation discriminator
Flight conditions Visual Meteorological Conditions
Raw dataKPAE 051553Z 16010KT 6SM -RA FEW029 BKN060 OVC080 11/08 A2987 RMK AO2 RAB53 SLP114 P0000 T01110078
An error has occurred. This application may no longer respond until reloaded. Reload 🗙